Time;durP1;ratioP1;P1;durP2;ratioP2;P2;SDS_P1;SDS_P2;PMS_P1;PMS_P2;Temp;Humidity;BMP_temperature;BMP_pressure;BME280_temperature;BME280_humidity;BME280_pressure;Samples;Min_cycle;Max_cycle;Signal;HPM_P1;HPM_P2
2023/04/03 00:02:08;;;;;;;9.40;9.00;;;;;;;6.82;85.51;92197.38;5091548;28;20230;-75
2023/04/03 00:04:33;;;;;;;8.83;8.43;;;;;;;6.88;84.99;92182.56;5093239;28;20201;-75
2023/04/03 00:06:59;;;;;;;8.00;7.70;;;;;;;6.85;84.96;92194.25;5091908;28;20222;-75
2023/04/03 00:09:24;;;;;;;8.77;8.43;;;;;;;6.55;85.55;92165.84;5091497;28;20193;-75
2023/04/03 00:11:50;;;;;;;8.60;8.10;;;;;;;6.64;85.30;92161.66;5092438;28;20177;-75
2023/04/03 00:14:15;;;;;;;9.17;8.77;;;;;;;6.64;85.50;92161.66;5092474;28;20199;-75
2023/04/03 00:16:41;;;;;;;9.07;8.77;;;;;;;6.46;86.70;92141.47;5092724;28;20195;-75
2023/04/03 00:19:07;;;;;;;8.57;8.17;;;;;;;6.69;86.87;92179.78;5092125;28;20193;-75
2023/04/03 00:21:32;;;;;;;9.80;9.30;;;;;;;6.63;86.57;92180.06;5092025;28;20225;-75
2023/04/03 00:23:57;;;;;;;8.67;8.37;;;;;;;6.63;86.39;92170.47;5090886;28;20189;-75
2023/04/03 00:26:23;;;;;;;9.23;8.47;;;;;;;6.54;87.09;92172.06;5091854;28;20217;-75
2023/04/03 00:28:48;;;;;;;8.23;7.87;;;;;;;6.54;87.20;92169.47;5092839;28;20200;-75
2023/04/03 00:31:16;;;;;;;8.73;8.43;;;;;;;6.53;86.99;92168.69;5092257;28;20224;-75
2023/04/03 00:33:41;;;;;;;9.67;9.13;;;;;;;6.26;87.29;92129.38;5091767;28;20169;-75
2023/04/03 00:36:09;;;;;;;8.03;7.73;;;;;;;6.37;87.54;92166.41;5091766;28;20280;-75
2023/04/03 00:38:34;;;;;;;8.83;8.53;;;;;;;6.35;87.74;92150.34;5093197;28;20183;-75
2023/04/03 00:41:00;;;;;;;9.60;9.10;;;;;;;6.47;87.43;92182.69;5091578;28;20220;-75
2023/04/03 00:43:26;;;;;;;9.37;8.97;;;;;;;6.37;88.00;92179.34;5091850;28;20690;-76
2023/04/03 00:45:53;;;;;;;9.17;8.77;;;;;;;6.26;88.42;92175.22;5094057;28;20260;-75
2023/04/03 00:48:31;;;;;;;8.73;8.43;;;;;;;6.19;88.42;92169.56;5092942;28;20187;-76
2023/04/03 00:50:57;;;;;;;7.83;7.53;;;;;;;6.22;88.71;92171.63;5090446;28;20249;-75
2023/04/03 00:53:33;;;;;;;8.90;8.50;;;;;;;6.11;89.18;92159.72;5092043;28;20192;-75
2023/04/03 00:56:00;;;;;;;8.67;8.13;;;;;;;6.34;88.44;92182.47;5090696;28;20216;-75
2023/04/03 00:58:36;;;;;;;9.07;8.67;;;;;;;6.27;87.92;92174.22;5092066;28;20216;-75
2023/04/03 01:01:06;;;;;;;8.70;8.30;;;;;;;6.23;87.60;92165.41;5090835;28;20228;-75
2023/04/03 01:03:32;;;;;;;8.07;7.70;;;;;;;6.50;87.36;92186.59;5092807;28;20210;-75
2023/04/03 01:05:58;;;;;;;8.67;8.37;;;;;;;6.42;87.44;92179.34;5090667;28;20220;-76
2023/04/03 01:08:23;;;;;;;8.57;8.27;;;;;;;6.49;86.76;92180.63;5091433;28;20250;-75
2023/04/03 01:10:49;;;;;;;8.37;8.00;;;;;;;6.58;85.94;92186.81;5091116;28;20235;-75
2023/04/03 01:13:21;;;;;;;8.87;8.57;;;;;;;6.56;85.61;92180.34;5091412;28;20188;-76
2023/04/03 01:15:46;;;;;;;8.30;8.00;;;;;;;6.65;85.90;92180.56;5091888;28;20224;-76
2023/04/03 01:18:12;;;;;;;8.03;7.77;;;;;;;6.56;86.57;92182.94;5092626;28;20196;-75
2023/04/03 01:21:01;;;;;;;8.40;8.10;;;;;;;6.43;86.74;92181.69;5090480;28;20240;-76
2023/04/03 01:24:02;;;;;;;8.13;7.67;;;;;;;6.05;87.15;92138.25;5092328;28;20200;-75
2023/04/03 01:26:28;;;;;;;8.47;8.07;;;;;;;6.33;87.11;92175.75;5090097;28;20229;-75
2023/04/03 01:28:55;;;;;;;8.30;8.00;;;;;;;6.32;86.93;92180.16;5092048;28;20242;-75
2023/04/03 01:31:32;;;;;;;9.77;9.37;;;;;;;6.34;86.46;92182.47;5090383;28;20280;-75
2023/04/03 01:33:58;;;;;;;10.70;10.30;;;;;;;6.36;87.04;92176.00;5089577;28;20188;-75
2023/04/03 01:36:27;;;;;;;9.13;8.73;;;;;;;6.27;87.30;92174.97;5091178;28;20224;-75
2023/04/03 01:38:53;;;;;;;8.97;8.57;;;;;;;6.38;87.06;92184.28;5090832;28;20197;-75
2023/04/03 01:41:20;;;;;;;8.53;8.23;;;;;;;6.50;86.44;92174.41;5090514;28;20217;-75
2023/04/03 01:43:47;;;;;;;7.90;7.60;;;;;;;6.22;86.68;92150.91;5092531;28;20189;-75
2023/04/03 01:46:12;;;;;;;8.93;8.63;;;;;;;6.45;86.35;92173.63;5090519;28;20217;-75
2023/04/03 01:48:38;;;;;;;8.50;8.20;;;;;;;6.54;86.48;92177.25;5091737;28;20200;-75
2023/04/03 01:51:04;;;;;;;9.10;8.70;;;;;;;6.47;86.98;92179.34;5090704;28;20237;-75
2023/04/03 01:53:29;;;;;;;9.13;8.83;;;;;;;6.39;87.13;92175.47;5091467;28;20207;-75
2023/04/03 01:55:55;;;;;;;8.90;8.60;;;;;;;6.41;87.40;92177.81;5089662;28;20224;-75
2023/04/03 01:58:20;;;;;;;9.97;9.57;;;;;;;6.22;88.31;92171.63;5090460;28;20192;-75
2023/04/03 02:00:46;;;;;;;8.57;8.27;;;;;;;6.27;88.27;92187.16;5090403;28;20700;-75
2023/04/03 02:03:11;;;;;;;9.23;8.80;;;;;;;6.02;88.15;92148.34;5089257;28;20189;-75
2023/04/03 02:05:37;;;;;;;8.43;8.13;;;;;;;6.00;89.30;92160.78;5090417;28;20231;-75
2023/04/03 02:08:03;;;;;;;10.13;9.53;;;;;;;6.07;88.74;92182.78;5090809;28;20203;-75
2023/04/03 02:10:28;;;;;;;9.33;8.93;;;;;;;6.11;89.13;92176.06;5089382;28;21101;-75
2023/04/03 02:12:54;;;;;;;9.37;8.97;;;;;;;5.95;90.49;92178.91;5089953;28;20203;-75
2023/04/03 02:15:19;;;;;;;9.30;8.90;;;;;;;5.92;90.78;92184.63;5089724;28;20247;-75
2023/04/03 02:17:45;;;;;;;8.63;8.23;;;;;;;5.82;90.14;92171.69;5090486;28;20248;-75
2023/04/03 02:20:11;;;;;;;9.20;8.87;;;;;;;5.76;91.41;92185.66;5090732;28;20239;-75
2023/04/03 02:22:36;;;;;;;8.30;8.00;;;;;;;5.77;91.61;92182.00;5090744;28;20207;-75
2023/04/03 02:25:02;;;;;;;9.60;9.20;;;;;;;5.80;91.39;92182.28;5091004;28;20232;-75
2023/04/03 02:27:27;;;;;;;9.27;8.80;;;;;;;5.86;90.64;92175.28;5089471;28;20196;-75
2023/04/03 02:29:53;;;;;;;8.60;8.20;;;;;;;5.78;90.28;92178.38;5089462;28;20220;-75
2023/04/03 02:32:18;;;;;;;10.30;9.73;;;;;;;5.72;90.72;92174.22;5089991;28;20475;-75
2023/04/03 02:34:44;;;;;;;8.93;8.53;;;;;;;5.36;93.22;92147.56;5091125;28;20232;-75
2023/04/03 02:37:09;;;;;;;10.03;9.63;;;;;;;5.44;92.84;92148.84;5089837;28;20199;-75
2023/04/03 02:39:35;;;;;;;9.47;8.80;;;;;;;5.43;93.20;92150.66;5088658;28;20231;-75
2023/04/03 02:42:00;;;;;;;9.60;9.20;;;;;;;5.58;92.70;92168.03;5087818;28;20736;-75
2023/04/03 02:44:25;;;;;;;9.33;8.93;;;;;;;5.50;92.40;92165.94;5089392;28;20195;-75
2023/04/03 02:46:51;;;;;;;10.00;9.33;;;;;;;5.41;92.71;92164.91;5090730;28;20184;-75
2023/04/03 02:49:17;;;;;;;9.37;8.93;;;;;;;5.32;92.56;92145.75;5090479;28;20270;-75
2023/04/03 02:51:42;;;;;;;8.83;8.43;;;;;;;5.35;93.00;92147.81;5090384;28;20246;-75
2023/04/03 02:54:08;;;;;;;9.87;9.43;;;;;;;5.09;93.20;92122.97;5088315;28;20185;-75
2023/04/03 02:56:34;;;;;;;9.20;8.80;;;;;;;5.27;93.30;92156.88;5089352;28;20266;-75
2023/04/03 02:58:59;;;;;;;9.20;8.60;;;;;;;5.26;94.42;92151.97;5088951;28;20246;-75
2023/04/03 03:01:28;;;;;;;9.93;9.53;;;;;;;5.15;93.88;92129.69;5089101;28;20236;-75
2023/04/03 03:03:54;;;;;;;9.20;8.80;;;;;;;5.24;93.58;92141.06;5088935;28;20180;-75
2023/04/03 03:06:19;;;;;;;9.13;8.63;;;;;;;5.28;93.13;92142.09;5088973;28;20253;-75
2023/04/03 03:08:45;;;;;;;9.07;8.67;;;;;;;5.14;93.83;92112.63;5089849;28;20201;-75
2023/04/03 03:11:11;;;;;;;8.67;8.07;;;;;;;5.24;93.08;92131.50;5089375;28;20231;-75
2023/04/03 03:13:36;;;;;;;9.50;9.07;;;;;;;5.11;93.19;92103.56;5090423;28;20267;-75
2023/04/03 03:16:02;;;;;;;9.30;8.90;;;;;;;5.26;92.98;92126.09;5089435;28;20281;-76
2023/04/03 03:18:28;;;;;;;8.53;8.23;;;;;;;5.32;93.58;92132.81;5089572;28;20181;-75
2023/04/03 03:20:55;;;;;;;8.87;8.37;;;;;;;5.30;93.25;92135.66;5088670;28;20243;-75
2023/04/03 03:23:22;;;;;;;9.57;9.17;;;;;;;5.29;94.15;92135.91;5090671;28;20188;-75
2023/04/03 03:25:48;;;;;;;8.67;8.33;;;;;;;5.29;93.95;92133.31;5088310;28;20232;-75
2023/04/03 03:28:13;;;;;;;8.87;8.57;;;;;;;5.33;93.56;92129.97;5090332;28;20192;-75
2023/04/03 03:30:39;;;;;;;8.53;8.23;;;;;;;5.29;93.99;92128.94;5088337;28;20280;-74
2023/04/03 03:33:04;;;;;;;9.43;8.80;;;;;;;5.19;93.75;92123.75;5088805;28;20177;-75
2023/04/03 03:35:30;;;;;;;9.00;8.60;;;;;;;5.40;93.29;92135.66;5088558;28;20232;-75
2023/04/03 03:37:55;;;;;;;9.27;8.67;;;;;;;5.37;93.52;92145.75;5088786;28;20197;-75
2023/04/03 03:40:20;;;;;;;8.97;8.67;;;;;;;5.33;93.89;92142.91;5088246;28;20733;-75
2023/04/03 03:42:46;;;;;;;9.17;8.77;;;;;;;5.20;94.51;92119.34;5089738;28;20216;-75
2023/04/03 03:45:11;;;;;;;9.87;9.43;;;;;;;5.21;93.68;92115.72;5089539;28;20212;-78
2023/04/03 03:47:36;;;;;;;9.20;8.67;;;;;;;5.17;93.63;92106.94;5090286;28;20194;-77
2023/04/03 03:50:02;;;;;;;9.20;8.80;;;;;;;5.35;94.20;92130.50;5088009;28;20232;-77
2023/04/03 03:52:29;;;;;;;8.40;7.90;;;;;;;5.27;93.90;92140.56;5089771;28;20177;-77
2023/04/03 03:54:55;;;;;;;9.90;9.50;;;;;;;5.36;94.12;92139.00;5088245;28;20259;-76
2023/04/03 03:57:21;;;;;;;8.33;8.03;;;;;;;5.35;94.80;92147.81;5089386;28;20201;-78
2023/04/03 03:59:48;;;;;;;10.43;9.80;;;;;;;5.27;93.82;92118.06;5088982;28;20228;-80
2023/04/03 04:02:13;;;;;;;9.27;8.87;;;;;;;5.30;94.99;92135.66;5089008;28;20272;-70
2023/04/03 04:04:39;;;;;;;10.43;9.47;;;;;;;5.30;94.57;92114.97;5084136;28;20224;-71
2023/04/03 04:07:04;;;;;;;9.23;8.93;;;;;;;5.39;94.09;92126.34;5086533;28;20195;-74
2023/04/03 04:09:30;;;;;;;10.20;9.60;;;;;;;5.27;94.12;92112.09;5087149;28;20236;-71
2023/04/03 04:11:55;;;;;;;10.20;9.80;;;;;;;5.29;93.68;92133.31;5086738;28;20208;-70
2023/04/03 04:14:20;;;;;;;10.27;9.87;;;;;;;5.46;93.32;92139.03;5086562;28;20361;-71
2023/04/03 04:16:49;;;;;;;10.33;9.73;;;;;;;5.47;93.37;92151.72;5087205;28;20228;-68
2023/04/03 04:19:15;;;;;;;10.03;9.40;;;;;;;5.36;93.18;92123.47;5087919;28;20199;-66
2023/04/03 04:21:41;;;;;;;8.83;8.43;;;;;;;5.69;92.92;92154.03;5106906;28;20220;-67
2023/04/03 04:24:07;;;;;;;9.53;9.13;;;;;;;5.66;92.56;92144.19;5109394;28;20209;-67
2023/04/03 04:26:32;;;;;;;10.43;9.80;;;;;;;5.89;92.29;92154.06;5109869;28;20306;-69
2023/04/03 04:28:58;;;;;;;9.93;9.50;;;;;;;5.80;92.33;92137.47;5111235;28;20188;-68
2023/04/03 04:31:23;;;;;;;9.70;9.30;;;;;;;5.95;92.60;92153.00;5111132;28;20921;-72
2023/04/03 04:33:49;;;;;;;11.60;9.97;;;;;;;5.86;91.58;92132.06;5111216;28;20200;-73
2023/04/03 04:36:14;;;;;;;10.70;10.10;;;;;;;6.22;92.76;92156.88;5112444;27;20208;-74
2023/04/03 04:38:40;;;;;;;9.57;8.97;;;;;;;6.15;91.17;92152.97;5112891;28;20187;-74
2023/04/03 04:41:06;;;;;;;10.10;9.60;;;;;;;6.10;91.41;92150.41;5111112;28;20258;-75
2023/04/03 04:43:31;;;;;;;11.70;9.93;;;;;;;6.30;90.38;92161.47;5114570;28;20188;-75
2023/04/03 04:46:04;;;;;;;10.50;9.63;;;;;;;6.45;89.88;92164.06;5111124;28;20224;-75
2023/04/03 04:48:30;;;;;;;9.57;9.07;;;;;;;6.45;90.14;92171.03;5112248;28;20188;-74
2023/04/03 04:50:55;;;;;;;9.80;9.07;;;;;;;6.41;91.22;92157.06;5111391;28;20226;-74
2023/04/03 04:53:21;;;;;;;11.13;10.57;;;;;;;6.51;90.92;92178.56;5111268;28;20225;-74
2023/04/03 04:55:46;;;;;;;10.57;9.93;;;;;;;6.36;90.44;92129.34;5111025;28;20231;-74
2023/04/03 04:58:12;;;;;;;11.03;10.33;;;;;;;6.63;89.71;92149.72;5112116;28;20195;-74
2023/04/03 05:00:37;;;;;;;10.30;9.33;;;;;;;6.65;90.31;92167.59;5111579;28;20315;-75
2023/04/03 05:03:03;;;;;;;9.80;9.30;;;;;;;6.56;90.19;92162.19;5112046;28;20307;-74
2023/04/03 05:05:28;;;;;;;10.23;9.50;;;;;;;6.72;90.53;92189.66;5110880;28;20216;-75
2023/04/03 05:07:53;;;;;;;9.97;9.20;;;;;;;6.79;90.02;92190.13;5111964;28;20207;-74
2023/04/03 05:10:19;;;;;;;9.23;8.73;;;;;;;6.88;89.47;92188.53;5111373;28;20249;-74
2023/04/03 05:12:44;;;;;;;9.53;8.83;;;;;;;6.82;90.00;92178.47;5111522;28;20184;-74
2023/04/03 05:15:10;;;;;;;10.03;9.27;;;;;;;6.99;89.73;92191.88;5111674;28;20251;-74
2023/04/03 05:17:35;;;;;;;8.70;8.30;;;;;;;7.24;88.61;92202.88;5111874;28;20233;-74
2023/04/03 05:20:02;;;;;;;10.13;9.27;;;;;;;7.37;87.93;92204.13;5110951;28;20635;-74
2023/04/03 05:22:28;;;;;;;9.97;9.07;;;;;;;7.51;87.89;92202.47;5110972;28;20204;-74
2023/04/03 05:24:53;;;;;;;12.30;11.37;;;;;;;7.35;86.77;92141.28;5111329;28;20231;-75
2023/04/03 05:27:18;;;;;;;15.03;13.73;;;;;;;7.82;86.88;92211.63;5110916;28;20180;-74
2023/04/03 05:29:44;;;;;;;15.30;13.77;;;;;;;7.89;85.95;92215.47;5111563;28;20232;-74
2023/04/03 05:32:10;;;;;;;13.50;12.40;;;;;;;8.01;86.36;92215.13;5111220;28;21090;-74
2023/04/03 05:34:36;;;;;;;13.43;12.43;;;;;;;8.17;85.57;92201.72;5108826;28;20247;-73
2023/04/03 05:37:03;;;;;;;14.17;12.97;;;;;;;8.41;84.13;92201.00;5091003;28;20185;-74
2023/04/03 05:39:28;;;;;;;11.80;10.80;;;;;;;8.41;82.18;92193.22;5092215;28;20192;-74
2023/04/03 05:41:54;;;;;;;11.90;11.10;;;;;;;8.46;82.22;92198.38;5110819;28;20211;-74
2023/04/03 05:44:19;;;;;;;11.10;10.23;;;;;;;8.47;81.08;92207.75;5111296;27;20176;-75
2023/04/03 05:46:45;;;;;;;11.80;10.73;;;;;;;8.33;81.94;92199.03;5111259;28;20236;-73
2023/04/03 05:49:10;;;;;;;12.67;11.13;;;;;;;7.97;84.58;92199.28;5111246;28;20180;-74
2023/04/03 05:51:37;;;;;;;11.77;11.07;;;;;;;8.55;82.75;92199.31;5110540;28;20216;-74
2023/04/03 05:54:18;;;;;;;12.47;11.30;;;;;;;8.89;80.69;92202.59;5110379;28;20172;-73
2023/04/03 05:56:43;;;;;;;12.77;11.53;;;;;;;8.82;80.27;92157.91;5109941;28;20207;-74
2023/04/03 05:59:09;;;;;;;14.27;12.97;;;;;;;8.71;80.10;92179.91;5110489;28;20210;-74
2023/04/03 06:01:34;;;;;;;17.90;13.13;;;;;;;8.86;80.06;92177.13;5109504;28;20282;-74
2023/04/03 06:04:00;;;;;;;15.60;14.17;;;;;;;9.28;78.98;92172.69;5111811;28;20241;-74
2023/04/03 06:06:26;;;;;;;14.90;13.60;;;;;;;8.93;79.90;92187.97;5091870;28;20319;-74
2023/04/03 06:08:52;;;;;;;14.27;12.77;;;;;;;9.15;79.10;92172.63;5090612;28;20197;-74
2023/04/03 06:11:17;;;;;;;13.73;12.53;;;;;;;8.79;80.06;92176.69;5106864;28;20258;-73
2023/04/03 06:13:42;;;;;;;13.10;12.00;;;;;;;9.14;80.04;92178.84;5111747;28;20184;-74
2023/04/03 06:16:14;;;;;;;13.13;11.83;;;;;;;9.47;78.86;92157.84;5110694;28;20238;-74
2023/04/03 06:18:39;;;;;;;16.03;12.27;;;;;;;9.81;78.93;92173.22;5110493;28;20202;-74
2023/04/03 06:21:05;;;;;;;15.27;13.90;;;;;;;9.85;78.06;92169.00;5109508;28;20220;-73
2023/04/03 06:23:30;;;;;;;17.13;15.70;;;;;;;9.91;75.82;92165.28;5110840;28;20184;-74
2023/04/03 06:25:56;;;;;;;19.40;17.73;;;;;;;10.13;74.94;92186.34;5096252;28;20235;-72
2023/04/03 06:28:21;;;;;;;22.07;16.77;;;;;;;10.13;75.34;92188.16;5090913;28;20205;-69
2023/04/03 06:30:46;;;;;;;16.87;15.23;;;;;;;10.10;74.88;92192.09;5089578;28;20300;-69
2023/04/03 06:33:12;;;;;;;15.47;13.87;;;;;;;10.17;74.32;92196.94;5085907;28;20257;-70
2023/04/03 06:35:38;;;;;;;14.73;13.47;;;;;;;10.09;74.01;92205.41;5095009;28;20278;-71
2023/04/03 06:38:09;;;;;;;17.23;13.83;;;;;;;9.99;75.38;92216.78;5092903;28;20184;-70
2023/04/03 06:40:35;;;;;;;24.43;13.73;;;;;;;9.97;76.27;92208.44;5097867;28;20288;-68
2023/04/03 06:43:00;;;;;;;12.60;11.33;;;;;;;9.96;74.33;92206.88;5097456;28;20213;-69
2023/04/03 06:45:26;;;;;;;14.60;12.40;;;;;;;9.62;75.56;92201.13;5102542;28;20220;-69
2023/04/03 06:47:51;;;;;;;18.10;12.70;;;;;;;9.82;73.91;92201.63;5108331;28;20185;-69
2023/04/03 06:50:16;;;;;;;14.10;12.63;;;;;;;9.56;74.60;92195.22;5109194;28;20234;-69
2023/04/03 06:52:42;;;;;;;13.20;11.90;;;;;;;9.28;77.35;92205.75;5108571;28;20180;-69
2023/04/03 06:55:09;;;;;;;14.83;12.73;;;;;;;9.53;75.89;92208.03;5108305;28;20225;-69
2023/04/03 06:57:35;;;;;;;17.50;12.20;;;;;;;9.54;75.34;92188.75;5107926;28;20191;-70
2023/04/03 07:00:01;;;;;;;13.87;12.67;;;;;;;9.78;74.58;92200.66;5109752;27;20312;-69
2023/04/03 07:02:26;;;;;;;13.73;12.23;;;;;;;9.83;74.36;92218.03;5107738;28;20215;-68
2023/04/03 07:04:52;;;;;;;14.67;13.27;;;;;;;10.07;74.71;92218.75;5108587;27;20240;-67
2023/04/03 07:07:17;;;;;;;14.10;13.00;;;;;;;10.20;74.19;92206.81;5106581;28;20194;-68
2023/04/03 07:09:43;;;;;;;14.87;13.30;;;;;;;10.03;74.35;92191.66;5107156;28;20253;-68
2023/04/03 07:12:08;;;;;;;14.47;13.13;;;;;;;10.12;74.48;92204.84;5107932;28;20192;-68
2023/04/03 07:14:34;;;;;;;14.97;13.50;;;;;;;10.26;73.88;92200.44;5109289;27;20195;-67
2023/04/03 07:16:59;;;;;;;13.63;12.20;;;;;;;10.33;73.35;92201.66;5110643;28;20196;-69
2023/04/03 07:19:27;;;;;;;15.40;13.47;;;;;;;10.39;73.93;92195.28;5108068;27;20979;-69
2023/04/03 07:21:53;;;;;;;15.27;13.70;;;;;;;10.08;75.09;92185.63;5108528;28;20223;-69
2023/04/03 07:24:18;;;;;;;14.67;13.37;;;;;;;10.66;72.61;92202.38;5105033;27;20184;-68
2023/04/03 07:26:45;;;;;;;18.00;13.43;;;;;;;10.88;72.24;92181.63;5108500;28;20184;-71
2023/04/03 07:29:10;;;;;;;17.97;14.00;;;;;;;11.16;71.40;92198.81;5106936;28;20191;-71
2023/04/03 07:31:36;;;;;;;20.43;15.17;;;;;;;10.99;72.68;92183.72;5105707;27;20255;-70
2023/04/03 07:34:02;;;;;;;16.77;14.93;;;;;;;10.88;71.61;92176.41;5108007;28;20198;-72
2023/04/03 07:36:28;;;;;;;16.87;15.13;;;;;;;10.16;74.10;92158.91;5107385;27;20242;-72
2023/04/03 07:38:54;;;;;;;19.77;14.93;;;;;;;11.18;71.66;92160.88;5108212;28;20281;-73
2023/04/03 07:41:21;;;;;;;17.73;16.03;;;;;;;11.29;70.79;92161.44;5107516;28;20221;-70
2023/04/03 07:43:46;;;;;;;19.60;16.20;;;;;;;11.34;71.70;92163.97;5106440;28;20257;-72
2023/04/03 07:46:12;;;;;;;21.13;14.83;;;;;;;11.43;69.84;92149.13;5107932;28;20239;-71
2023/04/03 07:48:38;;;;;;;21.27;16.30;;;;;;;11.30;70.45;92171.59;5107925;28;20223;-71
2023/04/03 07:51:05;;;;;;;18.97;15.33;;;;;;;11.68;68.87;92169.53;5106245;28;20219;-71
2023/04/03 07:53:31;;;;;;;19.23;15.40;;;;;;;11.31;69.74;92165.31;5109538;28;20193;-71
2023/04/03 07:55:57;;;;;;;18.13;16.33;;;;;;;11.43;69.42;92150.97;5106811;28;20227;-72
2023/04/03 07:58:23;;;;;;;16.90;14.30;;;;;;;11.42;68.96;92170.34;5108459;28;20180;-72
2023/04/03 08:00:49;;;;;;;19.00;14.67;;;;;;;11.34;69.01;92141.22;5110004;28;20232;-73
2023/04/03 08:03:17;;;;;;;18.07;15.10;;;;;;;11.49;68.28;92179.31;5112162;28;20216;-73
2023/04/03 08:05:45;;;;;;;17.47;15.80;;;;;;;11.39;68.19;92177.69;5114231;28;20303;-72
2023/04/03 08:08:14;;;;;;;19.83;15.40;;;;;;;11.37;67.84;92176.44;5088284;28;20188;-72
2023/04/03 08:10:39;;;;;;;21.87;15.73;;;;;;;11.59;68.21;92175.72;5089516;28;20292;-71
2023/04/03 08:13:06;;;;;;;19.73;16.77;;;;;;;11.64;68.11;92167.78;5088175;28;20209;-71
2023/04/03 08:15:32;;;;;;;17.87;16.23;;;;;;;11.98;66.65;92173.28;5101221;28;20241;-72
2023/04/03 08:17:58;;;;;;;18.63;14.67;;;;;;;12.04;66.88;92172.09;5112542;28;20203;-74
2023/04/03 08:20:24;;;;;;;17.23;15.43;;;;;;;12.13;66.50;92170.31;5110242;28;20947;-75
2023/04/03 08:22:50;;;;;;;17.73;15.70;;;;;;;12.10;65.40;92176.13;5111759;28;20238;-73
2023/04/03 08:25:15;;;;;;;21.77;16.23;;;;;;;11.63;66.88;92135.63;5111105;28;20240;-73
2023/04/03 08:27:41;;;;;;;26.47;15.43;;;;;;;11.88;66.93;92169.06;5110203;28;20216;-73
2023/04/03 08:30:07;;;;;;;18.93;16.20;;;;;;;11.89;67.21;92169.84;5110763;28;20220;-73
2023/04/03 08:32:34;;;;;;;23.63;17.40;;;;;;;11.87;67.78;92161.50;5112390;28;20192;-74
2023/04/03 08:35:00;;;;;;;18.77;16.90;;;;;;;12.02;67.29;92151.47;5109469;28;20235;-74
2023/04/03 08:37:26;;;;;;;24.90;17.60;;;;;;;12.05;66.57;92129.16;5111459;28;20180;-75
2023/04/03 08:39:51;;;;;;;24.37;17.03;;;;;;;12.11;66.84;92107.06;5110697;28;20236;-76
2023/04/03 08:42:29;;;;;;;19.60;16.60;;;;;;;12.66;65.82;92153.53;5111339;28;20212;-77
2023/04/03 08:45:13;;;;;;;18.90;15.70;;;;;;;12.78;63.54;92152.94;5109763;28;20242;-75
2023/04/03 08:47:46;;;;;;;23.00;15.07;;;;;;;12.70;64.86;92143.22;5112451;28;20311;-73
2023/04/03 08:50:16;;;;;;;19.80;15.13;;;;;;;12.52;65.89;92150.22;5110286;28;20262;-74
2023/04/03 08:52:45;;;;;;;19.13;14.37;;;;;;;12.72;66.24;92146.28;5111111;28;20236;-75
2023/04/03 08:55:25;;;;;;;16.73;15.13;;;;;;;12.78;64.92;92129.38;5111783;28;20232;-75
2023/04/03 08:58:00;;;;;;;17.50;13.67;;;;;;;13.05;63.76;92144.91;5111291;28;20210;-73
2023/04/03 09:00:28;;;;;;;14.40;12.17;;;;;;;13.38;62.19;92138.22;5109992;28;20691;-75
2023/04/03 09:02:56;;;;;;;17.70;12.80;;;;;;;13.33;61.85;92140.19;5109379;28;20245;-72
2023/04/03 09:05:24;;;;;;;13.97;12.57;;;;;;;13.26;60.95;92140.63;5110239;28;20232;-73
2023/04/03 09:08:00;;;;;;;12.10;11.30;;;;;;;13.32;59.10;92122.94;5109640;28;20176;-71
2023/04/03 09:10:33;;;;;;;12.60;10.67;;;;;;;13.67;59.22;92141.00;5109389;28;20807;-75
2023/04/03 09:13:10;;;;;;;16.47;12.07;;;;;;;13.51;59.86;92139.91;5110554;28;20188;-73
2023/04/03 09:15:35;;;;;;;11.50;10.63;;;;;;;13.72;58.81;92132.22;5110542;28;20228;-72
2023/04/03 09:18:41;;;;;;;10.50;9.90;;;;;;;13.52;55.88;92132.81;5111565;28;20285;-71
2023/04/03 09:21:31;;;;;;;9.90;9.27;;;;;;;13.49;56.28;92130.81;5110743;28;20239;-70
2023/04/03 09:24:01;;;;;;;8.90;8.50;;;;;;;13.40;54.52;92109.06;5108948;28;20212;-69
2023/04/03 09:26:52;;;;;;;8.93;8.53;;;;;;;13.73;54.28;92131.13;5110606;27;20222;-69
2023/04/03 09:29:20;;;;;;;8.67;8.17;;;;;;;13.81;54.73;92131.13;5125491;28;20280;-69
2023/04/03 09:31:48;;;;;;;8.23;7.93;;;;;;;13.91;53.63;92130.84;5109693;28;20285;-70
2023/04/03 09:34:27;;;;;;;9.47;9.07;;;;;;;13.73;55.45;92124.03;5109552;28;20181;-69
2023/04/03 09:36:55;;;;;;;8.07;7.77;;;;;;;13.86;55.61;92128.34;5108705;28;20204;-70
2023/04/03 09:39:28;;;;;;;8.10;7.80;;;;;;;13.53;56.88;92119.41;5109865;27;20180;-70
2023/04/03 09:42:01;;;;;;;8.30;8.00;;;;;;;13.98;56.55;92117.22;5108789;28;20203;-70
2023/04/03 09:44:38;;;;;;;9.17;8.77;;;;;;;13.79;54.28;92109.66;5109007;27;20222;-69
2023/04/03 09:47:23;;;;;;;9.20;8.70;;;;;;;14.14;54.72;92108.56;5108798;28;20175;-70
2023/04/03 09:49:48;;;;;;;9.23;8.83;;;;;;;14.17;51.99;92102.69;5108618;28;20357;-69
2023/04/03 09:52:24;;;;;;;8.57;8.07;;;;;;;14.14;52.87;92103.31;5109059;28;20192;-70
2023/04/03 09:54:50;;;;;;;8.03;7.53;;;;;;;14.00;51.02;92086.97;5109791;28;20226;-70
2023/04/03 09:57:15;;;;;;;8.03;7.73;;;;;;;13.84;51.97;92104.28;5109666;28;20255;-69
2023/04/03 10:00:04;;;;;;;7.57;7.27;;;;;;;13.59;52.42;92107.66;5109811;27;20219;-71
2023/04/03 10:02:37;;;;;;;9.93;9.13;;;;;;;13.44;53.68;92099.50;5109019;28;20220;-70
2023/04/03 10:05:23;;;;;;;9.23;8.73;;;;;;;13.28;56.87;92099.16;5108240;28;20283;-71
2023/04/03 10:07:49;;;;;;;10.70;9.97;;;;;;;13.08;56.68;92096.34;5108512;28;20186;-70
2023/04/03 10:10:14;;;;;;;9.37;8.67;;;;;;;12.87;57.82;92096.91;5107683;27;20756;-69
2023/04/03 10:12:39;;;;;;;10.00;9.37;;;;;;;12.72;59.10;92088.69;5108176;28;20362;-71
2023/04/03 10:15:12;;;;;;;8.63;8.13;;;;;;;12.52;58.03;92095.25;5108534;27;20308;-68
2023/04/03 10:17:38;;;;;;;9.73;9.13;;;;;;;12.80;58.26;92086.09;5110146;28;20200;-68
2023/04/03 10:20:09;;;;;;;9.30;8.80;;;;;;;12.96;60.26;92081.22;5108810;28;20287;-68
2023/04/03 10:23:13;;;;;;;8.87;8.40;;;;;;;13.17;57.85;92084.06;5107897;28;20216;-69
2023/04/03 10:26:07;;;;;;;11.93;11.13;;;;;;;13.16;56.56;92082.50;5096838;28;20266;-71
2023/04/03 10:28:36;;;;;;;9.70;9.13;;;;;;;13.12;58.63;92077.09;5088337;28;20640;-69
2023/04/03 10:31:21;;;;;;;9.23;8.83;;;;;;;13.22;56.88;92076.81;5104736;28;20239;-71
2023/04/03 10:34:04;;;;;;;8.40;8.00;;;;;;;13.01;57.22;92072.47;5107926;28;20188;-70
2023/04/03 10:36:54;;;;;;;8.03;7.63;;;;;;;12.64;61.46;92066.63;5108100;28;20253;-70
2023/04/03 10:39:28;;;;;;;8.73;8.33;;;;;;;12.80;58.97;92066.97;5124404;27;20196;-71
2023/04/03 10:42:08;;;;;;;9.53;9.03;;;;;;;12.88;59.26;92067.03;5108720;28;20227;-71
2023/04/03 10:45:12;;;;;;;9.50;9.00;;;;;;;12.69;58.77;92048.16;5108444;28;21003;-71
2023/04/03 10:47:50;;;;;;;9.13;8.73;;;;;;;12.60;60.33;92054.44;5095876;28;20200;-69
2023/04/03 10:50:27;;;;;;;9.47;8.87;;;;;;;12.23;62.32;92054.94;5108016;27;20235;-70
2023/04/03 10:52:55;;;;;;;9.67;8.97;;;;;;;12.18;62.57;92052.44;5109091;28;20743;-70
2023/04/03 10:55:36;;;;;;;9.27;8.87;;;;;;;12.53;61.67;92047.03;5109748;27;20252;-69
2023/04/03 10:58:04;;;;;;;9.57;9.07;;;;;;;12.41;65.43;92048.69;5108916;28;20211;-69
2023/04/03 11:00:43;;;;;;;9.47;8.97;;;;;;;12.51;65.11;92043.19;5108282;28;20230;-69
2023/04/03 11:03:15;;;;;;;10.60;9.73;;;;;;;12.55;65.21;92049.34;5123288;28;20278;-69
2023/04/03 11:05:51;;;;;;;9.00;8.40;;;;;;;12.55;67.33;92057.97;5107222;28;20232;-71
2023/04/03 11:08:34;;;;;;;10.10;9.57;;;;;;;12.11;70.42;92041.66;5109042;28;20894;-70
2023/04/03 11:11:06;;;;;;;10.47;9.83;;;;;;;11.94;72.38;92057.25;5107604;27;20269;-70
2023/04/03 11:13:38;;;;;;;10.53;9.83;;;;;;;11.69;74.87;92044.81;5108788;28;20199;-70
2023/04/03 11:16:05;;;;;;;11.03;10.20;;;;;;;11.60;77.86;92046.53;5107822;27;20231;-70
2023/04/03 11:18:44;;;;;;;10.57;9.87;;;;;;;11.50;82.41;92054.63;5110681;28;20248;-68
2023/04/03 11:21:21;;;;;;;10.47;9.77;;;;;;;11.14;86.43;92054.66;5106137;28;20237;-69
2023/04/03 11:23:46;;;;;;;10.60;10.00;;;;;;;11.07;88.40;92044.63;5109346;28;20284;-69
2023/04/03 11:26:26;;;;;;;10.97;10.33;;;;;;;11.13;88.43;92043.44;5108105;27;20222;-69
2023/04/03 11:29:00;;;;;;;10.20;9.60;;;;;;;11.07;90.20;92051.66;5107996;28;20196;-70
2023/04/03 11:31:29;;;;;;;11.83;11.10;;;;;;;10.93;92.81;92046.47;5106914;27;20215;-69
2023/04/03 11:34:07;;;;;;;9.60;9.10;;;;;;;10.86;93.71;92048.72;5108991;28;20184;-69
2023/04/03 11:36:44;;;;;;;10.37;9.87;;;;;;;10.90;94.67;92044.47;5112727;27;20235;-69
2023/04/03 11:39:25;;;;;;;10.50;9.77;;;;;;;11.00;94.61;92044.22;5111716;28;20706;-71